Flight Track Log - Related Links

Times and Time Zones

All times are in EDT time to prevent confusion due to time zone crossing. See the LXJ342 flight status page for this flight to view local times or setup timezone preferences in your user account.

Time Position Orientation Groundspeed Altitude Reporting Facility
EDT Latitude Longitude Course Direction KTS MPH feet Rate Location/Type
Mon 01:44:35 PM 41.1000 -73.7833 270° West 195 224 4,800  Level New York TRACON
Mon 01:45:41 PM 41.0667 -73.8667 242° Southwest 242 278 8,500 3,524 Climbing New York TRACON
Mon 01:46:41 PM 41.0333 -73.9500 242° Southwest 249 287 12,200 3,250 Climbing New York TRACON
Mon 01:47:41 PM 41.0000 -74.0333 242° Southwest 267 307 15,000 1,400 Climbing New York TRACON
Mon 01:48:41 PM 40.9667 -74.1333 246° West 312 359 15,000 316 Level New York TRACON
Mon 01:49:35 PM 40.9500 -74.2333 258° West 321 369 15,600 769 Climbing New York TRACON
Mon 01:50:00 PM 40.9667 -74.6401 270° West  Level FlightAware Approximate
Mon 01:51:17 PM 40.9400 -74.4436 266° West 337 388 17,000  Level New York Center
Mon 01:52:18 PM 40.9256 -74.5664 261° West 342 394 17,000  Level New York Center
Mon 01:53:18 PM 40.9072 -74.6864 259° West 342 394 17,000  Level New York Center
Mon 01:54:20 PM 40.8906 -74.8061 260° West 337 388 17,000 706 Level New York Center
Mon 01:55:17 PM 40.8719 -74.9231 258° West 332 382 18,400 1,525 Climbing New York Center
Mon 01:56:18 PM 40.8556 -75.0317 259° West 332 382 20,000 1,785 Climbing New York Center
Mon 01:57:18 PM 40.8386 -75.1514 259° West 332 382 22,000 1,983 Climbing New York Center
Mon 01:58:19 PM 40.8175 -75.2706 257° West 337 388 24,000 2,017 Climbing New York Center
Mon 01:59:17 PM 40.7981 -75.3956 258° West 342 394 26,000 2,017 Climbing New York Center
Mon 02:00:18 PM 40.7786 -75.5203 258° West 347 399 28,000 1,785 Climbing New York Center
Mon 02:01:18 PM 40.7589 -75.6447 258° West 352 405 29,600 1,400 Climbing New York Center
Mon 02:02:18 PM 40.7392 -75.7722 259° West 352 405 30,800 1,091 Climbing New York Center
Mon 02:03:19 PM 40.7208 -75.9050 260° West 357 411 31,800 1,000 Climbing New York Center
Mon 02:04:18 PM 40.6983 -76.0375 257° West 370 426 32,800 1,000 Climbing New York Center
Mon 02:05:19 PM 40.6756 -76.1725 257° West 376 433 33,800 984 Climbing New York Center
Mon 02:06:20 PM 40.6775 -76.3122 271° West 381 438 34,800 1,017 Climbing New York Center
Mon 02:07:17 PM 40.6961 -76.4481 280° West 381 438 35,800 821 Climbing New York Center
Mon 02:08:17 PM 40.7164 -76.5867 281° West 386 444 36,400 545 Climbing New York Center
Mon 02:09:18 PM 40.7325 -76.7250 279° West 386 444 36,900 541 Climbing New York Center
Mon 02:10:19 PM 40.7481 -76.8661 278° West 392 451 37,500 541 Climbing New York Center
Mon 02:11:20 PM 40.7681 -77.0047 281° West 392 451 38,000 248 Climbing New York Center
Mon 02:12:20 PM 40.7833 -77.1461 278° West 392 451 38,000  Level New York Center
Mon 02:13:17 PM 40.8006 -77.2903 279° West 397 457 38,000  Level New York Center
Mon 02:14:17 PM 40.8175 -77.4372 279° West 397 457 38,000  Level New York Center
Mon 02:16:21 PM 40.8536 -77.7636 278° West 412 474 38,000  Level Cleveland Center
Mon 02:17:21 PM 40.8719 -77.9194 279° West 423 487 38,000  Level Cleveland Center
Mon 02:18:21 PM 40.8881 -78.0756 278° West 428 493 38,000  Level Cleveland Center
Mon 02:19:21 PM 40.9061 -78.2314 279° West 428 493 38,000  Level Cleveland Center
Mon 02:20:21 PM 40.9258 -78.3928 279° West 439 505 38,000  Level Cleveland Center
Mon 02:21:21 PM 40.9433 -78.5461 279° West 439 505 38,000  Level Cleveland Center
Mon 02:22:21 PM 40.9586 -78.7025 277° West 434 499 38,000  Level Cleveland Center
Mon 02:23:21 PM 40.9756 -78.8586 278° West 434 499 38,000  Level Cleveland Center
Mon 02:24:21 PM 40.9903 -79.0150 277° West 434 499 38,000  Level Cleveland Center
Mon 02:25:21 PM 41.0069 -79.1689 278° West 434 499 38,000  Level Cleveland Center
Mon 02:26:21 PM 41.0214 -79.3281 277° West 428 493 38,000  Level Cleveland Center
Mon 02:27:21 PM 41.0375 -79.4847 278° West 428 493 38,000  Level Cleveland Center
Mon 02:28:21 PM 41.0514 -79.6414 277° West 428 493 38,000  Level Cleveland Center
Mon 02:29:21 PM 41.0650 -79.7983 277° West 428 493 38,000  Level Cleveland Center
Mon 02:30:21 PM 41.0806 -79.9414 278° West 428 493 38,000  Level Cleveland Center
Mon 02:31:21 PM 41.0939 -80.0983 276° West 428 493 38,000  Level Cleveland Center
Mon 02:32:21 PM 41.1069 -80.2525 276° West 428 493 38,000  Level Cleveland Center
Mon 02:33:21 PM 41.1219 -80.4067 277° West 428 493 38,000  Level Cleveland Center
Mon 02:34:21 PM 41.1344 -80.5667 276° West 428 493 38,000  Level Cleveland Center
Mon 02:35:21 PM 41.1489 -80.7239 277° West 428 493 38,000  Level Cleveland Center
Mon 02:36:21 PM 41.1611 -80.8839 276° West 428 493 38,000  Level Cleveland Center
Mon 02:37:21 PM 41.1753 -81.0547 276° West 428 493 38,000  Level Cleveland Center
Mon 02:38:21 PM 41.1892 -81.2122 277° West 428 493 38,000  Level Cleveland Center
Mon 02:39:21 PM 41.2006 -81.3697 276° West 428 493 38,000  Level Cleveland Center
Mon 02:40:21 PM 41.2142 -81.5078 278° West 422 486 38,000  Level Cleveland Center
Mon 02:41:21 PM 41.2272 -81.6681 276° West 429 494 38,000  Level Cleveland Center
Mon 02:42:21 PM 41.2361 -81.8256 274° West 429 494 38,000  Level Cleveland Center
Mon 02:43:21 PM 41.2489 -81.9861 276° West 429 494 38,000  Level Cleveland Center
Mon 02:44:21 PM 41.2592 -82.1492 275° West 438 504 38,000  Level Cleveland Center
Mon 02:45:21 PM 41.2714 -82.3208 275° West 443 510 38,000  Level Cleveland Center
Mon 02:46:21 PM 41.2833 -82.4758 276° West 437 503 38,000  Level Cleveland Center
Mon 02:47:21 PM 41.2933 -82.6339 275° West 431 496 38,000  Level Cleveland Center
Mon 02:48:21 PM 41.3050 -82.7917 276° West 431 496 38,000  Level Cleveland Center
Mon 02:49:21 PM 41.3164 -82.9497 276° West 426 490 38,000  Level Cleveland Center
Mon 02:50:21 PM 41.3256 -83.1050 275° West 426 490 38,000  Level Cleveland Center
Mon 02:51:21 PM 41.3344 -83.2572 274° West 426 490 38,000  Level Cleveland Center
Mon 02:52:21 PM 41.3433 -83.4153 274° West 426 490 38,000  Level Cleveland Center
Mon 02:53:21 PM 41.3539 -83.5708 275° West 426 490 38,000  Level Cleveland Center
Mon 02:54:21 PM 41.3622 -83.7261 274° West 426 490 38,000  Level Cleveland Center
Mon 02:55:21 PM 41.3708 -83.8622 275° West 426 490 38,000  Level Cleveland Center
Mon 02:56:21 PM 41.3808 -84.0231 275° West 426 490 38,000  Level Cleveland Center
Mon 02:58:22 PM 41.4011 -84.3497 275° West 431 496 38,000 262 Level Chicago Center
Mon 02:59:24 PM 41.4086 -84.5075 274° West 429 494 38,800 677 Climbing Chicago Center
Mon 03:00:26 PM 41.4172 -84.6614 274° West 421 484 39,400 532 Climbing Chicago Center
Mon 03:01:28 PM 41.4256 -84.8136 274° West 414 476 39,900 290 Climbing Chicago Center
Mon 03:02:30 PM 41.4333 -84.9669 274° West 413 475 40,000 48 Climbing Chicago Center
Mon 03:03:32 PM 41.4417 -85.1550 273° West 420 483 40,000  Level Chicago Center
Mon 03:04:34 PM 41.4489 -85.3156 273° West 427 491 40,000  Level Chicago Center
Mon 03:05:36 PM 41.4564 -85.4783 274° West 431 496 40,000  Level Chicago Center
Mon 03:06:39 PM 41.4636 -85.6383 273° West 427 491 40,000  Level Chicago Center
Mon 03:07:41 PM 41.4694 -85.7975 273° West 427 491 40,000  Level Chicago Center
Mon 03:08:43 PM 41.4758 -85.9542 273° West 424 488 40,000  Level Chicago Center
Mon 03:09:45 PM 41.4819 -86.1133 273° West 429 494 40,000  Level Chicago Center
Mon 03:10:47 PM 41.4883 -86.2689 273° West 422 486 40,000  Level Chicago Center
Mon 03:11:49 PM 41.4950 -86.4525 273° West 414 476 40,000  Level Chicago Center
Mon 03:12:51 PM 41.5000 -86.6042 273° West 412 474 40,000  Level Chicago Center
Mon 03:13:53 PM 41.5053 -86.7606 273° West 412 474 40,000  Level Chicago Center
Mon 03:14:55 PM 41.5097 -86.9125 272° West 414 476 40,000  Level Chicago Center
Mon 03:15:57 PM 41.5150 -87.0644 273° West 413 475 40,000  Level Chicago Center
Mon 03:16:59 PM 41.5197 -87.2186 272° West 419 482 40,000  Level Chicago Center
Mon 03:18:02 PM 41.5247 -87.4042 272° West 419 482 40,000  Level Chicago Center
Mon 03:19:04 PM 41.5297 -87.5581 273° West 420 483 40,000  Level Chicago Center
Mon 03:20:06 PM 41.5336 -87.7106 272° West 417 480 40,000  Level Chicago Center
Mon 03:21:08 PM 41.5367 -87.8639 272° West 418 481 40,000  Level Chicago Center
Mon 03:22:10 PM 41.5417 -88.0425 272° West 413 475 40,000  Level Chicago Center
Mon 03:23:12 PM 41.5447 -88.1928 272° West 417 480 40,000  Level Chicago Center
Mon 03:24:14 PM 41.5428 -88.3481 269° West 426 490 40,000  Level Chicago Center
Mon 03:25:16 PM 41.5203 -88.5081 259° West 441 507 40,000  Level Chicago Center
Mon 03:26:18 PM 41.4942 -88.7011 260° West 444 511 40,000  Level Chicago Center
Mon 03:27:20 PM 41.4722 -88.8628 260° West 448 516 40,000  Level Chicago Center
Mon 03:28:23 PM 41.4589 -89.0264 264° West 446 513 40,000  Level Chicago Center
Mon 03:29:25 PM 41.4436 -89.1883 263° West 445 512 40,000  Level Chicago Center
Mon 03:30:27 PM 41.4275 -89.3761 264° West 450 518 40,000  Level Chicago Center
Mon 03:31:29 PM 41.4119 -89.5406 263° West 450 518 40,000  Level Chicago Center
Mon 03:32:31 PM 41.3972 -89.7047 263° West 450 518 40,000  Level Chicago Center
Mon 03:33:33 PM 41.3814 -89.8706 263° West 454 522 40,000  Level Chicago Center
Mon 03:34:35 PM 41.3661 -90.0336 263° West 450 518 40,000  Level Chicago Center
Mon 03:35:37 PM 41.3450 -90.2303 262° West 450 518 40,000  Level Chicago Center
Mon 03:36:39 PM 41.3297 -90.3925 263° West 447 514 40,000  Level Chicago Center
Mon 03:37:41 PM 41.3133 -90.5550 262° West 447 514 40,000  Level Chicago Center
Mon 03:38:43 PM 41.2931 -90.7211 261° West 458 527 40,000  Level Chicago Center
Mon 03:39:46 PM 41.2767 -90.8825 262° West 447 514 40,000  Level Chicago Center
Mon 03:40:48 PM 41.2558 -91.0789 262° West 449 517 40,000  Level Chicago Center
Mon 03:41:50 PM 41.2378 -91.2411 262° West 447 514 40,000  Level Chicago Center
Mon 03:42:52 PM 41.2189 -91.4056 261° West 450 518 40,000  Level Chicago Center
Mon 03:43:54 PM 41.2014 -91.5681 262° West 447 514 40,000  Level Chicago Center
Mon 03:44:56 PM 41.1828 -91.7283 261° West 450 518 40,000  Level Chicago Center
Mon 03:45:58 PM 41.1606 -91.9228 261° West 449 517 40,000  Level Chicago Center
Mon 03:47:00 PM 41.1411 -92.0858 261° West 452 520 40,000  Level Chicago Center
Mon 03:48:02 PM 41.1211 -92.2494 261° West 454 522 40,000  Level Chicago Center
Mon 03:49:04 PM 41.1019 -92.4131 261° West 454 522 40,000  Level Chicago Center
Mon 03:50:07 PM 41.0775 -92.6089 261° West 455 524 40,000  Level Chicago Center
Mon 03:51:09 PM 41.0586 -92.7700 261° West 451 519 40,000  Level Chicago Center
Mon 03:52:11 PM 41.0369 -92.9364 260° West 460 529 40,000  Level Chicago Center
Mon 03:53:13 PM 41.0172 -93.1000 261° West 457 526 40,000  Level Chicago Center
Mon 03:54:15 PM 40.9961 -93.2633 260° West 457 526 40,000  Level Chicago Center
Mon 03:55:17 PM 40.9703 -93.4600 260° West 456 525 40,000  Level Chicago Center
Mon 03:56:19 PM 40.9492 -93.6231 260° West 456 525 40,000  Level Chicago Center
Mon 03:57:21 PM 40.9278 -93.7872 260° West 458 527 40,000  Level Chicago Center
Mon 03:58:23 PM 40.9053 -93.9503 260° West 455 524 40,000  Level Chicago Center
Mon 03:59:25 PM 40.8789 -94.1469 260° West 458 527 40,000  Level Chicago Center
Mon 04:00:28 PM 40.8561 -94.3103 260° West 457 526 40,000  Level Chicago Center
Mon 04:01:30 PM 40.8325 -94.4756 259° West 460 529 40,000  Level Chicago Center
Mon 04:02:43 PM 40.8008 -94.6894 259° West 462 532 40,000  Level Minneapolis Center
Mon 04:03:44 PM 40.7772 -94.8561 259° West 462 532 40,000  Level Minneapolis Center
Mon 04:04:46 PM 40.7536 -95.0219 259° West 460 529 40,000  Level Minneapolis Center
Mon 04:05:48 PM 40.7283 -95.1894 259° West 462 532 40,000  Level Minneapolis Center
Mon 04:06:50 PM 40.7056 -95.3558 260° West 461 531 40,000  Level Minneapolis Center
Mon 04:07:52 PM 40.6800 -95.5233 259° West 461 531 40,000  Level Minneapolis Center
Mon 04:08:53 PM 40.6550 -95.6881 259° West 458 527 40,000  Level Minneapolis Center
Mon 04:09:55 PM 40.6297 -95.8553 259° West 461 531 40,000  Level Minneapolis Center
Mon 04:10:57 PM 40.6003 -96.0556 259° West 462 532 40,000  Level Minneapolis Center
Mon 04:11:59 PM 40.5736 -96.2225 258° West 463 533 40,000  Level Minneapolis Center
Mon 04:13:01 PM 40.5478 -96.3906 259° West 464 534 40,000  Level Minneapolis Center
Mon 04:14:02 PM 40.5208 -96.5572 258° West 465 535 40,000  Level Minneapolis Center
Mon 04:15:04 PM 40.4944 -96.7233 258° West 465 535 40,000  Level Minneapolis Center
Mon 04:16:06 PM 40.4678 -96.8889 258° West 464 534 40,000  Level Minneapolis Center
Mon 04:17:08 PM 40.4408 -97.0556 258° West 464 534 40,000  Level Minneapolis Center
Mon 04:18:10 PM 40.4139 -97.2206 258° West 464 534 40,000  Level Minneapolis Center
Mon 04:19:11 PM 40.3803 -97.4189 258° West 464 534 40,000  Level Minneapolis Center
Mon 04:20:13 PM 40.3528 -97.5842 258° West 464 534 40,000  Level Minneapolis Center
Mon 04:21:15 PM 40.3250 -97.7500 258° West 464 534 40,000  Level Minneapolis Center
Mon 04:22:17 PM 40.2967 -97.9161 257° West 465 535 40,000  Level Minneapolis Center
Mon 04:23:19 PM 40.2675 -98.0828 257° West 466 536 40,000  Level Minneapolis Center
Mon 04:24:21 PM 40.2389 -98.2478 257° West 465 535 40,000  Level Minneapolis Center
Mon 04:25:23 PM 40.2097 -98.4131 257° West 464 534 40,000  Level Minneapolis Center
Mon 04:26:25 PM 40.1744 -98.6100 257° West 463 533 40,000  Level Minneapolis Center
Mon 04:27:27 PM 40.1453 -98.7747 257° West 464 534 40,000  Level Minneapolis Center
Mon 04:28:29 PM 40.1161 -98.9406 257° West 465 535 40,000  Level Minneapolis Center
Mon 04:28:45 PM 40.1106 -98.9725 257° West 464 534 40,000  Level Denver Center
Mon 04:29:47 PM 40.0794 -99.1369 256° West 465 535 40,000  Level Denver Center
Mon 04:30:49 PM 40.0494 -99.3019 257° West 465 535 40,000  Level Denver Center
Mon 04:31:51 PM 40.0122 -99.4994 256° West 465 535 40,000  Level Denver Center
Mon 04:32:53 PM 39.9811 -99.6633 256° West 466 536 40,000  Level Denver Center
Mon 04:33:55 PM 39.9494 -99.8297 256° West 471 542 40,000  Level Denver Center
Mon 04:34:57 PM 39.9186 -99.9947 256° West 469 540 40,000  Level Denver Center
Mon 04:35:58 PM 39.8867 -100.1594 256° West 470 541 40,000  Level Denver Center
Mon 04:37:00 PM 39.8519 -100.3383 256° West 471 542 40,000  Level Denver Center
Mon 04:38:02 PM 39.8208 -100.4964 256° West 471 542 40,000  Level Denver Center
Mon 04:39:04 PM 39.7850 -100.6819 256° West 473 544 40,000  Level Denver Center
Mon 04:40:06 PM 39.7528 -100.8392 255° West 470 541 40,000  Level Denver Center
Mon 04:41:08 PM 39.7169 -101.0233 256° West 469 540 40,000  Level Denver Center
Mon 04:42:09 PM 39.6844 -101.1808 255° West 471 542 40,000  Level Denver Center
Mon 04:43:11 PM 39.6522 -101.3389 255° West 473 544 40,000  Level Denver Center
Mon 04:44:13 PM 39.6150 -101.5219 255° West 471 542 40,000  Level Denver Center
Mon 04:45:15 PM 39.5819 -101.6800 255° West 473 544 40,000  Level Denver Center
Mon 04:46:17 PM 39.5442 -101.8642 255° West 473 544 40,000  Level Denver Center
Mon 04:47:18 PM 39.5106 -102.0192 254° West 468 539 40,000  Level Denver Center
Mon 04:48:20 PM 39.4722 -102.2036 255° West 474 545 40,000  Level Denver Center
Mon 04:49:22 PM 39.4392 -102.3600 255° West 471 542 40,000  Level Denver Center
Mon 04:50:24 PM 39.4050 -102.5158 254° West 471 542 40,000  Level Denver Center
Mon 04:51:25 PM 39.3658 -102.6969 254° West 470 541 40,000  Level Denver Center
Mon 04:52:27 PM 39.3283 -102.8678 254° West 469 540 40,000  Level Denver Center
Mon 04:53:29 PM 39.2939 -103.0244 254° West 473 544 40,000  Level Denver Center
Mon 04:54:31 PM 39.2533 -103.2067 254° West 475 547 40,000  Level Denver Center
Mon 04:55:33 PM 39.2181 -103.3631 254° West 475 547 40,000  Level Denver Center
Mon 04:56:34 PM 39.1772 -103.5450 254° West 475 547 40,000  Level Denver Center
Mon 04:57:36 PM 39.1414 -103.7014 254° West 475 547 40,000  Level Denver Center
Mon 04:58:38 PM 39.1061 -103.8561 254° West 472 543 40,000  Level Denver Center
Mon 04:59:40 PM 39.0636 -104.0378 253° West 476 548 40,000  Level Denver Center
Mon 05:00:42 PM 39.0275 -104.1950 254° West 479 551 40,000  Level Denver Center
Mon 05:01:43 PM 38.9853 -104.3783 254° West 481 554 40,000  Level Denver Center
Mon 05:02:45 PM 38.9472 -104.5369 253° West 486 559 40,000  Level Denver Center
Mon 05:03:47 PM 38.9036 -104.7203 253° West 482 555 40,000  Level Denver Center
Mon 05:04:49 PM 38.8664 -104.8778 253° West 482 555 40,000  Level Denver Center
Mon 05:05:51 PM 38.8236 -105.0569 253° West 475 547 40,000  Level Denver Center
Mon 05:06:52 PM 38.7917 -105.1881 253° West 481 554 40,000  Level Denver Center
Mon 05:08:07 PM 38.7358 -105.4206 253° West 477 549 40,000  Level Denver Center
Mon 05:09:09 PM 38.6975 -105.5739 252° West 475 547 40,000  Level Denver Center
Mon 05:10:11 PM 38.6522 -105.7561 252° West 479 551 40,000  Level Denver Center
Mon 05:11:12 PM 38.6144 -105.9103 253° West 477 549 40,000  Level Denver Center
Mon 05:12:14 PM 38.5697 -106.0897 252° West 475 547 40,000  Level Denver Center
Mon 05:13:16 PM 38.5314 -106.2350 251° West 479 551 40,000  Level Denver Center
Mon 05:14:18 PM 38.4883 -106.3983 251° West 483 556 40,000  Level Denver Center
Mon 05:15:20 PM 38.4478 -106.5614 252° West 480 552 40,000  Level Denver Center
Mon 05:16:21 PM 38.4050 -106.7236 251° West 480 552 40,000  Level Denver Center
Mon 05:17:24 PM 38.3547 -106.9181 252° West 480 552 40,000  Level Denver Center
Mon 05:18:25 PM 38.3122 -107.0808 252° West 481 554 40,000  Level Denver Center
Mon 05:19:27 PM 38.2708 -107.2353 251° West 483 556 40,000  Level Denver Center
Mon 05:20:29 PM 38.2236 -107.4136 251° West 478 550 40,000  Level Denver Center
Mon 05:21:31 PM 38.1831 -107.5678 252° West 479 551 40,000  Level Denver Center
Mon 05:22:33 PM 38.1347 -107.7472 251° West 479 551 40,000  Level Denver Center
Mon 05:23:35 PM 38.0931 -107.9031 251° West 484 557 40,000  Level Denver Center
Mon 05:25:38 PM 38.0011 -108.2392 251° West 476 548 40,000  Level Denver Center
Mon 05:26:40 PM 37.9583 -108.3928 251° West 481 554 40,000  Level Denver Center
Mon 05:27:42 PM 37.9092 -108.5711 251° West 483 556 40,000  Level Denver Center
Mon 05:28:44 PM 37.8669 -108.7247 251° West 484 557 40,000  Level Denver Center
Mon 05:29:46 PM 37.8169 -108.8997 250° West 477 549 40,000  Level Denver Center
Mon 05:30:48 PM 37.7781 -109.0508 252° West 473 544 40,000  Level Denver Center
Mon 05:31:50 PM 37.7350 -109.2314 253° West 480 552 40,000  Level Denver Center
Mon 05:32:51 PM 37.7056 -109.3886 257° West 481 554 40,000  Level Denver Center
Mon 05:33:53 PM 37.6750 -109.5433 256° West 477 549 40,000  Level Denver Center
Mon 05:34:55 PM 37.6400 -109.7244 256° West 477 549 40,000 -48 Level Denver Center
Mon 05:35:57 PM 37.6094 -109.8797 256° West 478 550 39,900 -1,113 Descending Denver Center
Mon 05:36:59 PM 37.5733 -110.0622 256° West 480 552 37,700 -1,887 Descending Denver Center
Mon 05:38:01 PM 37.5422 -110.2158 256° West 476 548 36,000 -823 Descending Denver Center
Mon 05:39:03 PM 37.5072 -110.3894 256° West 462 532 36,000  Level Denver Center
Mon 05:40:05 PM 37.4708 -110.5628 255° West 479 551 36,000  Level Denver Center
Mon 05:41:07 PM 37.4378 -110.7264 256° West 481 554 36,000  Level Denver Center
Mon 05:42:09 PM 37.4033 -110.8900 255° West 483 556 36,000 -387 Level Denver Center
Mon 05:43:11 PM 37.3694 -111.0517 255° West 479 551 35,200 -1,210 Descending Denver Center
Mon 05:44:13 PM 37.3344 -111.2147 255° West 483 556 33,500 -1,548 Descending Denver Center
Mon 05:45:15 PM 37.3014 -111.3761 256° West 478 550 32,000 -726 Descending Denver Center
Mon 05:46:17 PM 37.2594 -111.5681 255° West 474 545 32,000  Level Denver Center
Mon 05:47:19 PM 37.2258 -111.7306 255° West 480 552 32,000  Level Denver Center
Mon 05:48:21 PM 37.1919 -111.8939 255° West 482 555 32,000  Level Denver Center
Mon 05:49:23 PM 37.1472 -112.0539 251° West 482 555 32,000 -726 Level Denver Center
Mon 05:50:25 PM 37.1022 -112.2131 251° West 483 556 30,500 -976 Descending Denver Center
Mon 05:51:26 PM 37.0581 -112.3708 251° West 481 554 30,000 -227 Descending Denver Center
Mon 05:52:37 PM 37.0058 -112.5589 251° West 474 545 30,000  Level Los Angeles Center
Mon 05:53:39 PM 36.9606 -112.7208 251° West 488 562 30,000  Level Los Angeles Center
Mon 05:54:41 PM 36.9156 -112.8811 251° West 487 560 30,000  Level Los Angeles Center
Mon 05:55:42 PM 36.8808 -113.0078 251° West 482 555 30,000 -242 Level Los Angeles Center
Mon 05:56:45 PM 36.8183 -113.2322 251° West 487 560 29,500 -1,008 Descending Los Angeles Center
Mon 05:57:47 PM 36.7731 -113.3919 251° West 488 562 27,900 -1,548 Descending Los Angeles Center
Mon 05:58:49 PM 36.7303 -113.5450 251° West 473 544 26,300 -1,536 Descending Los Angeles Center
Mon 05:59:52 PM 36.6872 -113.6906 250° West 453 521 24,700 -1,536 Descending Los Angeles Center
Mon 06:00:54 PM 36.6461 -113.8342 250° West 444 511 23,100 -1,887 Descending Los Angeles Center
Mon 06:01:56 PM 36.6056 -113.9728 250° West 433 498 20,800 -2,371 Descending Los Angeles Center
Mon 06:02:58 PM 36.5547 -114.1314 248° West 418 481 18,200 -2,323 Descending Los Angeles Center
Mon 06:04:00 PM 36.4972 -114.2533 240° Southwest 402 463 16,000 -2,110 Descending Los Angeles Center
Mon 06:04:29 PM 36.4772 -114.3097 246° West 375 432 15,000 -1,839 Descending Los Angeles Center
Mon 06:05:02 PM 36.4472 -114.3600 233° Southwest 370 426 14,100 -1,705 Descending Los Angeles Center
Mon 06:06:04 PM 36.4014 -114.4550 239° Southwest 331 381 12,300 -1,558 Descending Los Angeles Center
Mon 06:06:19 PM 36.3906 -114.4839 245° Southwest 303 349 12,100 -677 Descending Los Angeles Center
Mon 06:07:06 PM 36.3553 -114.5383 231° Southwest 302 348 11,600 -1,156 Descending Los Angeles Center
Mon 06:08:08 PM 36.3117 -114.6228 237° Southwest 294 338 10,000 -1,452 Descending Los Angeles Center
Mon 06:09:10 PM 36.2667 -114.7050 236° Southwest 289 333 8,600 -1,412 Descending Los Angeles Center
Mon 06:09:33 PM 36.2458 -114.7492 240° Southwest 283 326 8,000 -581 Descending Los Angeles Center
Mon 06:10:12 PM 36.2244 -114.7839 233° Southwest 278 320 8,000 -545 Level Los Angeles Center
Mon 06:10:28 PM 36.2092 -114.8178 241° Southwest 253 291 7,500 -1,452 Descending Los Angeles Center
Mon 06:11:14 PM 36.1806 -114.8656 233° Southwest 246 283 6,500 -1,377 Descending Los Angeles Center
Mon 06:11:29 PM 36.1736 -114.8828 243° Southwest 237 273 6,100 -1,258 Descending Los Angeles Center
Mon 06:12:16 PM 36.1456 -114.9317 235° Southwest 235 270 5,200 -806 Descending Los Angeles Center
Mon 06:12:36 PM 36.1344 -114.9600 244° Southwest 239 275 5,200 -324 Level Los Angeles Center
Mon 06:13:30 PM 36.1344 -114.9983 270° West 212 244 4,800 -828 Descending Los Angeles Center
Mon 06:14:32 PM 36.1369 -115.0806 272° West 199 229 3,600 -919 Descending Los Angeles Center
Mon 06:15:34 PM 36.1308 -115.1367 262° West 190 219 2,900 -581 Descending Los Angeles Center
Mon 06:16:36 PM 36.0881 -115.1558 200° South 169 194 2,400 -484 Descending Los Angeles Center
Mon 06:18:00 PM 36.0801 -115.1523 219° Southwest  Level Estimated

Login

Don't have an account? Register now (free) for customized features, flight alerts, and more!